createdAt,value
2019-03-08T00:00:01.839Z,45.37
2019-03-08T00:02:30.553Z,45.15
2019-03-08T00:04:59.247Z,44.97
2019-03-08T00:07:27.903Z,44.94
2019-03-08T00:09:56.723Z,45.23
2019-03-08T00:12:25.359Z,45.34
2019-03-08T00:14:54.086Z,45.26
2019-03-08T00:17:22.709Z,44.93
2019-03-08T00:19:51.357Z,45.22
2019-03-08T00:22:20.069Z,46.01
2019-03-08T00:24:48.713Z,45.81
2019-03-08T00:27:17.334Z,46.57
2019-03-08T00:29:46.102Z,45.95
2019-03-08T00:32:15.024Z,45.74
2019-03-08T00:34:43.652Z,46.29
2019-03-08T00:37:12.301Z,47.57
2019-03-08T00:39:40.926Z,47.13
2019-03-08T00:42:09.556Z,46.83
2019-03-08T00:44:38.221Z,47.64
2019-03-08T00:47:06.846Z,47.17
2019-03-08T00:49:35.483Z,46.96
2019-03-08T00:52:04.163Z,46.99
2019-03-08T00:54:32.811Z,47.22
2019-03-08T00:57:01.444Z,47.11
2019-03-08T00:59:30.112Z,46.83
2019-03-08T01:01:58.741Z,46.74
2019-03-08T01:04:27.380Z,46.61
2019-03-08T01:06:56.079Z,46.36
2019-03-08T01:09:24.703Z,46.37
2019-03-08T01:11:53.344Z,46.62
2019-03-08T01:14:22.004Z,46.61
2019-03-08T01:20:15.851Z,46.92
2019-03-08T01:22:44.475Z,47.06
2019-03-08T01:25:13.103Z,46.55
2019-03-08T01:28:05.830Z,46.85
2019-03-08T01:30:35.541Z,46.88
2019-03-08T01:33:04.292Z,46.99
2019-03-08T01:35:33.240Z,46.94
2019-03-08T01:38:02.670Z,46.92
2019-03-08T01:40:31.289Z,46.93
2019-03-08T01:42:59.956Z,46.68
2019-03-08T01:45:28.599Z,46.83
2019-03-08T01:47:57.215Z,46.86
2019-03-08T01:50:26.052Z,46.86
2019-03-08T01:52:54.781Z,46.83
2019-03-08T01:55:23.407Z,47.12
2019-03-08T01:57:52.083Z,46.76
2019-03-08T02:00:21.584Z,47.08
2019-03-08T02:02:50.228Z,47.29
2019-03-08T02:05:19.849Z,48.12
2019-03-08T02:07:48.472Z,47.63
2019-03-08T02:10:17.402Z,47.45
2019-03-08T02:12:46.082Z,47.22
2019-03-08T02:15:18.964Z,47.54
2019-03-08T02:17:47.596Z,48.40
2019-03-08T02:20:20.863Z,47.47
2019-03-08T02:22:49.488Z,47.16
2019-03-08T02:25:18.131Z,46.92
2019-03-08T02:27:46.804Z,46.93
2019-03-08T02:30:18.931Z,47.15
2019-03-08T02:32:47.546Z,48.03
2019-03-08T02:38:43.628Z,47.42
2019-03-08T02:41:12.897Z,47.62
2019-03-08T02:43:41.523Z,47.38
2019-03-08T02:46:10.198Z,47.47
2019-03-08T02:48:38.827Z,47.43
2019-03-08T02:51:07.459Z,47.53
2019-03-08T02:53:36.134Z,47.53
2019-03-08T02:56:04.775Z,47.86
2019-03-08T02:58:33.396Z,47.75
2019-03-08T03:01:02.115Z,47.49
2019-03-08T03:03:30.973Z,48.35
2019-03-08T03:05:59.598Z,47.98
2019-03-08T03:08:28.261Z,48.25
2019-03-08T03:10:56.875Z,47.91
2019-03-08T03:13:25.493Z,47.75
2019-03-08T03:15:54.158Z,47.91
2019-03-08T03:18:22.954Z,47.74
2019-03-08T03:20:51.594Z,47.85
2019-03-08T03:23:20.832Z,47.90
2019-03-08T03:25:49.466Z,47.96
2019-03-08T03:28:18.114Z,48.01
2019-03-08T03:30:46.790Z,48.08
2019-03-08T03:33:15.697Z,47.96
2019-03-08T03:35:44.335Z,47.94
2019-03-08T03:38:12.993Z,47.93
2019-03-08T03:40:41.638Z,47.95
2019-03-08T03:43:10.280Z,47.99
2019-03-08T03:45:38.950Z,47.84
2019-03-08T03:48:07.685Z,47.78
2019-03-08T03:50:36.301Z,48.63
2019-03-08T03:53:04.969Z,48.20
2019-03-08T03:55:33.612Z,48.18
2019-03-08T03:58:02.237Z,48.25
2019-03-08T04:00:30.888Z,48.18
2019-03-08T04:02:59.511Z,49.94
2019-03-08T04:05:28.147Z,49.02
2019-03-08T04:07:56.817Z,48.70
2019-03-08T04:10:25.438Z,48.38
2019-03-08T04:12:54.057Z,48.40
2019-03-08T04:15:22.919Z,48.31
2019-03-08T04:17:51.540Z,48.80
2019-03-08T04:20:20.748Z,48.81
2019-03-08T04:22:49.402Z,48.68
2019-03-08T04:25:18.040Z,48.73
2019-03-08T04:27:46.662Z,48.55
2019-03-08T04:30:17.404Z,48.62
2019-03-08T04:32:46.035Z,48.57
2019-03-08T04:35:14.725Z,48.41
2019-03-08T04:37:43.499Z,48.54
2019-03-08T04:40:13.424Z,49.23
2019-03-08T04:42:42.066Z,48.62
2019-03-08T06:12:07.795Z,50.73
2019-03-08T06:14:36.418Z,51.34
2019-03-08T06:17:05.038Z,49.44
2019-03-08T06:19:33.712Z,48.63
2019-03-08T06:22:02.347Z,48.68
2019-03-08T06:24:30.982Z,48.64
2019-03-08T06:26:59.646Z,48.53
2019-03-08T06:29:28.451Z,49.49
2019-03-08T06:31:57.090Z,48.66
2019-03-08T06:34:25.751Z,48.12
2019-03-08T06:36:54.374Z,47.73
2019-03-08T06:39:22.989Z,48.16
2019-03-08T06:41:52.446Z,47.97
2019-03-08T06:44:21.247Z,49.42
2019-03-08T06:46:49.877Z,47.54
2019-03-08T06:49:18.543Z,46.72
2019-03-08T06:51:47.174Z,48.20
2019-03-08T06:54:15.804Z,46.56
2019-03-08T06:56:44.469Z,47.85
2019-03-08T06:59:17.987Z,47.68
2019-03-08T07:01:46.613Z,47.73
2019-03-08T07:04:15.208Z,47.21
2019-03-08T07:06:43.831Z,47.17
2019-03-08T07:09:12.457Z,46.18
2019-03-08T07:11:41.120Z,46.78
2019-03-08T07:14:09.938Z,46.51
2019-03-08T07:16:38.583Z,45.35
2019-03-08T07:19:07.244Z,47.19
2019-03-08T07:21:40.485Z,46.63
2019-03-08T07:24:10.767Z,45.60
2019-03-08T07:26:46.922Z,45.44
2019-03-08T07:29:17.186Z,46.81
2019-03-08T07:32:02.363Z,45.36
2019-03-08T07:34:35.387Z,44.79
2019-03-08T07:37:17.790Z,45.06
2019-03-08T07:40:00.050Z,44.60
2019-03-08T07:42:30.346Z,44.29
2019-03-08T07:45:03.860Z,44.24
2019-03-08T07:47:34.133Z,44.07
2019-03-08T07:50:13.528Z,43.60
2019-03-08T07:52:46.816Z,46.37
2019-03-08T07:55:20.091Z,45.66
2019-03-08T07:58:08.244Z,46.33
2019-03-08T08:00:47.244Z,44.48
2019-03-08T08:16:22.377Z,41.59
2019-03-08T08:19:08.603Z,43.66
2019-03-08T08:21:44.738Z,45.83
2019-03-08T08:24:20.768Z,43.68
2019-03-08T08:27:07.174Z,43.93
2019-03-08T08:29:40.326Z,43.60
2019-03-08T08:32:10.596Z,43.49
2019-03-08T08:34:46.736Z,41.60
2019-03-08T08:37:33.162Z,44.80
2019-03-08T08:40:03.475Z,45.55
2019-03-08T08:42:39.749Z,42.43
2019-03-08T08:45:12.058Z,41.75
2019-03-08T08:47:45.314Z,43.23
2019-03-08T08:50:24.666Z,43.41
2019-03-08T08:52:57.428Z,41.93
2019-03-08T08:55:27.695Z,40.95
2019-03-08T08:57:58.005Z,40.36
2019-03-08T09:00:43.232Z,40.26
2019-03-08T09:03:19.521Z,40.96
2019-03-08T09:05:52.490Z,41.29
2019-03-08T09:08:23.031Z,41.01
2019-03-08T09:10:59.231Z,40.80
2019-03-08T09:13:45.532Z,39.69
2019-03-08T09:16:15.835Z,41.10
2019-03-08T09:18:46.097Z,41.59
2019-03-08T09:21:25.280Z,41.37
2019-03-08T09:24:07.450Z,40.32
2019-03-08T09:26:52.649Z,39.54
2019-03-08T09:29:22.913Z,38.79
2019-03-08T09:31:59.198Z,38.10
2019-03-08T09:34:29.388Z,38.48
2019-03-08T09:36:59.838Z,38.87
2019-03-08T09:39:33.086Z,38.98
2019-03-08T09:42:21.232Z,39.31
2019-03-08T09:44:51.522Z,39.58
2019-03-08T09:47:21.783Z,38.45
2019-03-08T09:49:55.068Z,38.40
2019-03-08T09:52:40.433Z,40.99
2019-03-08T09:55:12.136Z,39.31
2019-03-08T09:57:45.121Z,38.54
2019-03-08T10:00:16.923Z,38.22
2019-03-08T10:02:47.110Z,38.74
2019-03-08T10:05:33.323Z,38.23
2019-03-08T10:08:18.450Z,37.01
2019-03-08T10:10:48.748Z,37.88
2019-03-08T10:13:24.878Z,38.53
2019-03-08T10:15:55.174Z,37.13
2019-03-08T10:18:34.209Z,36.70
2019-03-08T10:21:04.433Z,35.61
2019-03-08T10:23:51.031Z,35.32
2019-03-08T10:26:21.338Z,34.73
2019-03-08T10:28:51.590Z,35.22
2019-03-08T10:31:38.114Z,34.27
2019-03-08T10:34:11.160Z,34.92
2019-03-08T10:36:44.169Z,35.35
2019-03-08T10:39:14.433Z,34.75
2019-03-08T10:41:53.623Z,34.05
2019-03-08T10:44:29.883Z,34.01
2019-03-08T10:47:00.173Z,33.60
2019-03-08T10:49:36.382Z,33.29
2019-03-08T10:54:58.564Z,32.92
2019-03-08T10:57:44.012Z,33.35
2019-03-08T11:00:27.383Z,33.62
2019-03-08T11:03:13.633Z,32.88
2019-03-08T11:05:47.004Z,33.20
2019-03-08T11:08:17.271Z,32.91
2019-03-08T11:10:53.306Z,31.95
2019-03-08T11:13:43.170Z,32.26
2019-03-08T11:16:11.493Z,31.60
2019-03-08T11:18:44.971Z,31.16
2019-03-08T11:21:31.293Z,30.56
2019-03-08T11:24:10.603Z,30.30
2019-03-08T11:27:04.763Z,30.28
2019-03-08T11:29:34.991Z,30.85
2019-03-08T11:32:11.318Z,30.43
2019-03-08T11:34:51.981Z,26.56
2019-03-08T11:37:25.452Z,26.63
2019-03-08T11:39:55.631Z,23.64
2019-03-08T11:42:30.176Z,23.55
2019-03-08T11:45:12.483Z,22.09
2019-03-08T11:47:54.821Z,22.13
2019-03-08T11:50:25.115Z,21.88
2019-03-08T11:52:58.617Z,22.53
2019-03-08T11:55:44.005Z,22.76
2019-03-08T11:58:32.304Z,22.70
2019-03-08T12:01:02.591Z,23.03
2019-03-08T12:03:32.773Z,23.73
2019-03-08T12:06:15.206Z,24.35
2019-03-08T12:09:03.662Z,23.89
2019-03-08T12:11:45.787Z,23.59
2019-03-08T12:14:21.823Z,23.98
2019-03-08T12:16:55.023Z,22.82
2019-03-08T12:19:41.544Z,24.21
2019-03-08T12:22:11.844Z,24.78
2019-03-08T12:24:58.043Z,24.40
2019-03-08T12:27:31.313Z,24.44
2019-03-08T12:30:01.577Z,24.70
2019-03-08T12:32:34.547Z,24.66
2019-03-08T12:35:21.013Z,24.97
2019-03-08T12:37:54.266Z,25.47
2019-03-08T12:40:24.528Z,24.66
2019-03-08T12:42:54.819Z,23.96
2019-03-08T12:45:41.169Z,24.63
2019-03-08T12:48:11.459Z,25.14
2019-03-08T12:50:47.589Z,24.60
2019-03-08T12:53:21.018Z,24.17
2019-03-08T12:55:51.246Z,23.62
2019-03-08T12:58:39.445Z,23.68
2019-03-08T13:01:09.695Z,23.91
2019-03-08T13:03:55.919Z,23.69
2019-03-08T13:06:26.174Z,23.67
2019-03-08T13:09:08.341Z,22.81
2019-03-08T13:11:37.143Z,22.85
2019-03-08T13:14:05.765Z,21.74
2019-03-08T13:16:34.413Z,21.53
2019-03-08T13:19:02.963Z,21.30
2019-03-08T13:21:31.583Z,21.11
2019-03-08T13:24:00.236Z,20.78
2019-03-08T13:26:29.038Z,21.71
2019-03-08T13:28:57.649Z,20.90
2019-03-08T13:31:26.297Z,21.28
2019-03-08T13:33:54.911Z,21.29
2019-03-08T13:36:23.529Z,21.26
2019-03-08T13:38:52.202Z,21.36
2019-03-08T13:41:21.101Z,21.53
2019-03-08T13:43:49.718Z,21.33
2019-03-08T13:46:18.365Z,21.89
2019-03-08T13:48:46.994Z,20.71
2019-03-08T13:51:16.647Z,19.97
2019-03-08T13:53:45.301Z,20.42
2019-03-08T13:56:14.092Z,20.37
2019-03-08T13:58:42.720Z,20.91
2019-03-08T14:01:11.371Z,21.05
2019-03-08T14:03:39.990Z,20.93
2019-03-08T14:06:08.610Z,21.62
2019-03-08T14:08:37.265Z,21.97
2019-03-08T14:11:06.041Z,21.88
2019-03-08T14:13:34.661Z,22.12
2019-03-08T14:16:03.318Z,21.43
2019-03-08T14:18:31.917Z,20.87
2019-03-08T14:21:00.534Z,20.65
2019-03-08T14:23:29.179Z,21.17
2019-03-08T14:25:57.801Z,21.55
2019-03-08T14:28:26.428Z,21.63
2019-03-08T14:30:58.068Z,21.66
2019-03-08T14:33:26.920Z,20.88
2019-03-08T14:35:55.538Z,21.08
2019-03-08T14:38:24.184Z,21.69
2019-03-08T14:40:58.962Z,21.64
2019-03-08T14:43:49.016Z,21.52
2019-03-08T14:46:20.980Z,22.79
2019-03-08T14:48:49.874Z,22.11
2019-03-08T14:51:18.524Z,22.61
2019-03-08T14:53:47.134Z,22.97
2019-03-08T14:56:15.754Z,22.22
2019-03-08T14:58:44.401Z,22.55
2019-03-08T15:01:13.365Z,23.06
2019-03-08T15:03:43.872Z,23.38
2019-03-08T15:06:12.365Z,23.29
2019-03-08T15:08:40.964Z,22.80
2019-03-08T15:11:09.576Z,23.39
2019-03-08T15:13:38.225Z,23.22
2019-03-08T15:16:06.844Z,23.55
2019-03-08T15:18:35.466Z,23.31
2019-03-08T15:21:04.119Z,24.44
2019-03-08T15:23:32.733Z,24.60
2019-03-08T15:26:01.350Z,24.20
2019-03-08T15:28:30.080Z,24.23
2019-03-08T15:30:58.698Z,24.15
2019-03-08T15:33:27.313Z,24.59
2019-03-08T15:35:55.964Z,25.28
2019-03-08T15:38:24.578Z,24.70
2019-03-08T15:40:53.205Z,24.79
2019-03-08T15:43:21.852Z,24.83
2019-03-08T15:45:50.474Z,25.74
2019-03-08T15:48:19.097Z,25.76
2019-03-08T15:50:48.143Z,25.38
2019-03-08T15:53:16.818Z,24.94
2019-03-08T15:55:52.567Z,25.11
2019-03-08T15:58:15.984Z,25.27
2019-03-08T16:00:44.596Z,24.31
2019-03-08T16:03:13.213Z,24.64
2019-03-08T16:05:41.861Z,24.25
2019-03-08T16:08:10.757Z,24.59
2019-03-08T16:10:39.377Z,24.49
2019-03-08T16:13:08.023Z,23.89
2019-03-08T16:15:36.639Z,24.17
2019-03-08T16:18:05.247Z,24.91
2019-03-08T16:20:37.339Z,24.21
2019-03-08T16:23:06.680Z,24.18
2019-03-08T16:25:34.682Z,24.35
2019-03-08T16:28:03.121Z,24.01
2019-03-08T16:30:35.710Z,23.81
2019-03-08T16:33:25.003Z,23.95
2019-03-08T16:36:06.088Z,24.41
2019-03-08T16:38:51.999Z,24.94
2019-03-08T16:41:38.210Z,24.73
2019-03-08T16:44:10.882Z,24.84
2019-03-08T16:46:40.833Z,25.73
2019-03-08T16:49:10.720Z,25.39
2019-03-08T16:51:42.418Z,25.93
2019-03-08T16:54:18.314Z,25.08
2019-03-08T16:56:51.450Z,25.09
2019-03-08T16:59:21.726Z,26.03
2019-03-08T17:01:54.714Z,25.81
2019-03-08T17:04:25.041Z,25.69
2019-03-08T17:07:11.617Z,25.74
2019-03-08T17:09:47.664Z,25.68
2019-03-08T17:12:30.033Z,25.07
2019-03-08T17:15:16.902Z,26.02
2019-03-08T17:18:05.122Z,25.31
2019-03-08T17:20:44.231Z,26.40
2019-03-08T17:23:23.124Z,25.81
2019-03-08T17:25:56.104Z,25.22
2019-03-08T17:28:32.353Z,25.14
2019-03-08T17:31:08.376Z,25.15
2019-03-08T17:33:54.550Z,25.77
2019-03-08T17:36:40.824Z,25.43
2019-03-08T17:39:17.383Z,25.29
2019-03-08T17:41:50.603Z,24.74
2019-03-08T17:44:23.796Z,25.77
2019-03-08T17:47:00.093Z,25.14
2019-03-08T17:49:39.344Z,25.37
2019-03-08T17:52:24.748Z,25.20
2019-03-08T17:55:09.305Z,25.62
2019-03-08T17:57:42.978Z,24.48
2019-03-08T18:00:22.260Z,25.25
2019-03-08T18:03:01.675Z,25.07
2019-03-08T18:05:50.152Z,24.95
2019-03-08T18:08:20.455Z,25.16
2019-03-08T18:10:53.398Z,24.38
2019-03-08T18:13:39.929Z,24.01
2019-03-08T18:16:19.269Z,24.63
2019-03-08T18:18:52.568Z,24.21
2019-03-08T18:21:25.611Z,24.86
2019-03-08T18:24:04.733Z,24.52
2019-03-08T18:26:37.946Z,24.48
2019-03-08T18:29:26.356Z,24.85
2019-03-08T18:31:56.620Z,25.45
2019-03-08T18:34:32.686Z,25.14
2019-03-08T18:37:02.955Z,25.45
2019-03-08T18:39:49.159Z,25.67
2019-03-08T18:42:25.137Z,25.19
2019-03-08T18:44:59.025Z,25.62
2019-03-08T18:47:44.371Z,25.74
2019-03-08T18:50:14.667Z,25.37
2019-03-08T18:52:44.942Z,26.17
2019-03-08T18:55:21.122Z,26.28
2019-03-08T18:57:54.459Z,26.52
2019-03-08T19:00:27.486Z,26.27
2019-03-08T19:03:06.807Z,26.08
2019-03-08T19:05:37.101Z,26.10
2019-03-08T19:08:23.335Z,26.34
2019-03-08T19:11:09.790Z,26.22
2019-03-08T19:13:42.802Z,26.23
2019-03-08T19:16:13.085Z,25.98
2019-03-08T19:18:46.156Z,26.58
2019-03-08T19:21:16.442Z,26.80
2019-03-08T19:23:52.690Z,27.13
2019-03-08T19:26:31.815Z,27.27
2019-03-08T19:29:02.129Z,27.22
2019-03-08T19:31:38.391Z,27.65
2019-03-08T19:34:11.448Z,27.59
2019-03-08T19:36:44.730Z,28.46
2019-03-08T19:39:17.871Z,28.38
2019-03-08T19:41:51.100Z,28.88
2019-03-08T19:44:27.087Z,29.24
2019-03-08T19:47:16.093Z,29.26
2019-03-08T19:49:46.400Z,28.83
2019-03-08T19:52:22.706Z,29.13
2019-03-08T19:54:53.001Z,29.77
2019-03-08T19:57:23.260Z,28.68
2019-03-08T19:59:53.517Z,29.25
2019-03-08T20:02:26.546Z,29.57
2019-03-08T20:05:13.097Z,29.47
2019-03-08T20:07:43.414Z,29.20
2019-03-08T20:10:13.685Z,28.92
2019-03-08T20:12:44.132Z,28.63
2019-03-08T20:15:20.604Z,29.20
2019-03-08T20:17:50.856Z,29.07
2019-03-08T20:20:27.258Z,29.44
2019-03-08T20:23:00.423Z,29.33
2019-03-08T20:25:46.933Z,29.22
2019-03-08T20:28:17.192Z,29.28
2019-03-08T20:30:47.483Z,31.28
2019-03-08T20:33:17.783Z,32.01
2019-03-08T20:35:48.060Z,31.39
2019-03-08T20:38:34.244Z,30.57
2019-03-08T20:41:11.729Z,30.67
2019-03-08T20:43:50.966Z,31.05
2019-03-08T20:46:21.222Z,31.41
2019-03-08T20:48:49.850Z,31.21
2019-03-08T20:51:18.517Z,31.07
2019-03-08T20:53:47.158Z,32.02
2019-03-08T20:56:16.638Z,31.11
2019-03-08T20:58:45.299Z,30.78
2019-03-08T21:01:13.918Z,31.43
2019-03-08T21:03:42.686Z,31.90
2019-03-08T21:06:11.371Z,31.79
2019-03-08T21:08:39.993Z,31.20
2019-03-08T21:11:08.620Z,31.90
2019-03-08T21:13:37.298Z,31.83
2019-03-08T21:16:05.931Z,31.77
2019-03-08T21:18:34.562Z,31.89
2019-03-08T21:21:03.225Z,31.87
2019-03-08T21:23:31.854Z,31.82
2019-03-08T21:26:00.490Z,31.99
2019-03-08T21:28:29.151Z,31.33
2019-03-08T21:30:57.958Z,31.87
2019-03-08T21:33:26.590Z,31.91
2019-03-08T21:35:55.255Z,31.76
2019-03-08T21:38:23.892Z,31.71
2019-03-08T21:40:52.585Z,31.59
2019-03-08T21:43:21.275Z,32.62
2019-03-08T21:45:49.901Z,32.74
2019-03-08T21:48:18.541Z,33.68
2019-03-08T21:50:47.204Z,32.93
2019-03-08T21:53:15.844Z,33.10
2019-03-08T21:55:44.478Z,32.90
2019-03-08T21:58:13.150Z,33.15
2019-03-08T22:00:41.853Z,33.34
2019-03-08T22:03:10.482Z,33.13
2019-03-08T22:05:40.794Z,32.66
2019-03-08T22:08:16.872Z,32.86
2019-03-08T22:10:44.386Z,32.88
2019-03-08T22:13:13.075Z,32.84
2019-03-08T22:15:41.709Z,33.33
2019-03-08T22:18:10.478Z,33.83
2019-03-08T22:20:39.208Z,33.28
2019-03-08T22:23:08.009Z,33.29
2019-03-08T22:25:36.635Z,33.19
2019-03-08T22:28:05.303Z,33.48
2019-03-08T22:30:33.926Z,33.46
2019-03-08T22:33:02.556Z,33.57
2019-03-08T22:35:31.229Z,33.56
2019-03-08T22:37:59.854Z,33.78
2019-03-08T22:40:28.487Z,33.91
2019-03-08T22:42:57.147Z,34.11
2019-03-08T22:45:25.766Z,34.14
2019-03-08T22:47:54.399Z,34.44
2019-03-08T22:50:23.151Z,34.49
2019-03-08T22:52:51.843Z,34.46
2019-03-08T22:55:20.495Z,34.78
2019-03-08T22:57:49.163Z,34.30
2019-03-08T23:00:31.223Z,34.86
2019-03-08T23:02:59.957Z,34.62
2019-03-08T23:05:28.793Z,34.94
2019-03-08T23:07:57.419Z,35.32
2019-03-08T23:10:26.080Z,35.20
2019-03-08T23:12:54.711Z,34.87
2019-03-08T23:15:23.364Z,35.11
2019-03-08T23:17:52.030Z,35.23
2019-03-08T23:20:20.735Z,35.40
2019-03-08T23:22:49.296Z,35.25
2019-03-08T23:25:19.483Z,35.53
2019-03-08T23:27:52.933Z,35.64
2019-03-08T23:30:23.240Z,35.59
2019-03-08T23:32:51.937Z,36.00
2019-03-08T23:35:20.574Z,35.38
2019-03-08T23:37:49.254Z,35.51
2019-03-08T23:40:17.878Z,35.72
2019-03-08T23:42:46.567Z,35.91
2019-03-08T23:45:15.226Z,35.36
2019-03-08T23:47:43.856Z,35.75
2019-03-08T23:50:12.584Z,35.83
2019-03-08T23:52:42.191Z,35.15
2019-03-08T23:55:11.513Z,35.53
2019-03-08T23:57:40.142Z,35.40
